• Join FlightAware (Why Join?)
  • Login
  • US Flag 
07:17PM EDT


 

Airport Tracker/Info


-or-


 

Live Flight TrackerFlight Track Log ✈ N721CT ✈ 06-May-2013 ✈ KDAL - KRVS

Flight Track Log - Related Links

Times and Time Zones

All times are in EDT time to prevent confusion due to time zone crossing. See the N721CT flight status page for this flight to view local times or setup timezone preferences in your user account.

Time Position Orientation Groundspeed Altitude Reporting Facility
EDT Latitude Longitude Course Direction KTS MPH feet Rate Location/Type
05:45PM 32.9002 -96.8567 350° North  Level FlightAware Approximate
05:45PM 32.8833 -96.8833 350° North 75 86 2,400  Level Dallas / Fort Worth TRACON
05:46PM 32.9000 -96.8833 360° North 80 92 3,000 300 Climbing Dallas / Fort Worth TRACON
05:47PM 32.9333 -96.8833 360° North 114 131 3,000  Level Dallas / Fort Worth TRACON
05:49PM 33.0000 -96.8667 12° North 105 121 3,100 180 Climbing Dallas / Fort Worth TRACON
05:52PM 33.0414 -96.8925 349° North  Level FlightAware Approximate
05:53PM 33.0994 -96.8678 349° North 97 112 4,100  Level Fort Worth Center
05:54PM 33.1286 -96.8653 North 111 128 4,000 -60 Descending Fort Worth Center
05:55PM 33.1642 -96.8625 North 111 128 4,000  Level Fort Worth Center
05:57PM 33.2267 -96.8522 North 105 121 4,000 180 Level Fort Worth Center
05:58PM 33.2475 -96.8494 North 100 115 4,600 480 Climbing Fort Worth Center
05:59PM 33.2767 -96.8469 North 85 98 5,000 60 Climbing Fort Worth Center
06:01PM 33.3151 -96.8772 327° Northwest  Level FlightAware Approximate
06:02PM 33.3664 -96.8314 327° Northwest 110 127 5,000  Level Fort Worth Center
06:03PM 33.4019 -96.8286 North 110 127 5,000 60 Level Fort Worth Center
06:05PM 33.4644 -96.8158 10° North 110 127 5,200 60 Climbing Fort Worth Center
06:06PM 33.4917 -96.8058 17° North 104 120 5,200 -120 Level Fort Worth Center
06:07PM 33.5228 -96.7956 15° North 104 120 5,000 -60 Descending Fort Worth Center
06:08PM 33.5458 -96.7903 11° North 99 114 5,100  Climbing Fort Worth Center
06:09PM 33.5750 -96.7828 12° North 93 107 5,100  Level Fort Worth Center
06:11PM 33.6210 -96.7721 11° North  Level FlightAware Approximate
06:11PM 33.6250 -96.7675 11° North 87 100 5,100  Level Fort Worth Center
06:12PM 33.6478 -96.7597 16° North 87 100 5,100  Level Fort Worth Center
06:13PM 33.6750 -96.7519 13° North 87 100 5,100 -60 Level Fort Worth Center
06:15PM 33.7212 -96.7422 10° North  Level FlightAware Approximate
06:17PM 33.7750 -96.7164 10° North 87 100 5,000  Level Fort Worth Center
06:18PM 33.7958 -96.7086 17° North 87 100 5,100  Climbing Fort Worth Center
06:19PM 33.8250 -96.7033 North 87 100 5,000 -60 Descending Fort Worth Center
06:20PM 33.8458 -96.6958 17° North 87 100 5,000  Level Fort Worth Center
06:22PM 33.9319 -96.6977 10° North  Level FlightAware Approximate
06:22PM 33.8978 -96.6828 12° North 87 100 5,000  Level Fort Worth Center
06:24PM 33.9292 -96.6750 12° North 87 100 5,000  Level Fort Worth Center
06:27PM 33.9756 -96.6672 North  Level FlightAware Approximate
06:27PM 33.9292 -96.6750 North 87 100 5,000  Level Fort Worth Center
06:28PM 34.0542 -96.6339 15° North 119 137 5,000  Level Fort Worth Center
06:30PM 34.1008 -96.6278 North  Level FlightAware Approximate
06:30PM 34.1019 -96.6133 North 89 102 5,000  Level Fort Worth Center
06:32PM 34.1487 -96.6087 North  Level FlightAware Approximate
06:32PM 34.1519 -96.6003 North 89 102 5,000  Level Fort Worth Center
06:33PM 34.1747 -96.5950 11° North 89 102 5,000  Level Fort Worth Center
06:34PM 34.2019 -96.5847 17° North 89 102 5,000  Level Fort Worth Center
06:35PM 34.2289 -96.5769 13° North 89 102 5,000  Level Fort Worth Center
06:36PM 34.2539 -96.5692 14° North 89 102 5,000  Level Fort Worth Center
06:37PM 34.2789 -96.5614 14° North 89 102 5,000  Level Fort Worth Center
06:38PM 34.3039 -96.5536 14° North 89 102 5,000  Level Fort Worth Center
06:40PM 34.3507 -96.5559 358° North  Level FlightAware Approximate
06:40PM 34.3539 -96.5356 358° North 89 102 5,000  Level Fort Worth Center
06:41PM 34.3789 -96.5278 14° North 89 102 5,100  Climbing Fort Worth Center
06:42PM 34.4017 -96.5200 16° North 89 102 5,000 -60 Descending Fort Worth Center
06:43PM 34.4289 -96.5097 17° North 89 102 5,000  Level Fort Worth Center
06:44PM 34.4517 -96.5019 16° North 89 102 5,000  Level Fort Worth Center
06:45PM 34.4767 -96.4967 10° North 89 102 5,000  Level Fort Worth Center
06:46PM 34.5017 -96.4861 19° North 89 102 5,000  Level Fort Worth Center
06:47PM 34.5267 -96.4808 10° North 89 102 5,000  Level Fort Worth Center
06:48PM 34.5497 -96.4756 11° North 84 97 5,100  Climbing Fort Worth Center
06:49PM 34.5767 -96.4653 17° North 84 97 5,000 -60 Descending Fort Worth Center
06:50PM 34.6036 -96.4547 18° North 89 102 5,000  Level Fort Worth Center
06:51PM 34.6328 -96.4469 12° North 100 115 5,000  Level Fort Worth Center
06:52PM 34.6600 -96.4392 13° North 100 115 5,000  Level Fort Worth Center
06:53PM 34.6892 -96.4286 17° North 105 121 5,000  Level Fort Worth Center
06:54PM 34.7181 -96.4233 North 105 121 5,000  Level Fort Worth Center
06:56PM 34.7650 -96.4025 20° North 101 116 5,000  Level Kansas City Center
06:57PM 34.7942 -96.3936 14° North 104 120 5,000  Level Kansas City Center
06:58PM 34.8217 -96.3817 20° North 105 121 5,100  Climbing Kansas City Center
06:59PM 34.8597 -96.3708 13° North 105 121 5,000 -60 Descending Fort Worth Center
07:01PM 34.9147 -96.3494 18° North 108 124 5,000  Level Kansas City Center
07:03PM 34.9706 -96.3331 14° North 104 120 5,100  Climbing Kansas City Center
07:05PM 35.0114 -96.3105 24° Northeast  Level FlightAware Approximate
07:05PM 35.0322 -96.3111 24° Northeast 104 120 5,100  Level Kansas City Center
07:06PM 35.0531 -96.3078 North 105 121 5,000  Descending Fort Worth Center
07:07PM 35.0844 -96.3022 North 105 121 5,100  Climbing Fort Worth Center
07:08PM 35.1092 -96.2969 10° North 105 121 5,000  Descending Fort Worth Center
07:09PM 35.1406 -96.2839 19° North 105 121 5,100  Climbing Fort Worth Center
07:10PM 35.1697 -96.2758 13° North 105 121 5,000 -60 Descending Fort Worth Center
07:11PM 35.1967 -96.2653 18° North 105 121 5,000  Level Fort Worth Center
07:12PM 35.2236 -96.2547 18° North 105 121 5,000  Level Fort Worth Center
07:13PM 35.2506 -96.2467 14° North 105 121 5,000  Level Fort Worth Center
07:14PM 35.2797 -96.2336 20° North 105 121 5,000  Level Fort Worth Center
07:16PM 35.3483 -96.2097 16° North 105 121 5,000  Level Kansas City Center
07:18PM 35.3691 -96.1805 49° Northeast  Level FlightAware Approximate
07:20PM 35.4389 -96.1803 36° Northeast 106 122 5,000  Level Kansas City Center
07:21PM 35.4667 -96.1722 13° North 105 121 5,000  Level Kansas City Center
07:22PM 35.4961 -96.1636 13° North 107 123 5,000  Level Kansas City Center
07:24PM 35.5594 -96.1422 15° North 109 125 5,000  Level Kansas City Center
07:25PM 35.5267 -95.9986 36° Northeast  Level FlightAware Approximate
07:25PM 35.5875 -96.1328 15° North 107 123 5,000  Level Kansas City Center
07:26PM 35.6164 -96.1247 13° North 107 123 5,100  Climbing Kansas City Center
07:27PM 35.6439 -96.1139 18° North 106 122 5,000  Descending Kansas City Center
07:27PM 35.6561 -96.1106 12° North 110 127 5,100 60 Climbing Kansas City Center
07:28PM 35.6847 -96.1017 14° North 108 124 5,100 -60 Level Kansas City Center
07:29PM 35.7019 -96.0939 20° North 108 124 5,000  Descending Kansas City Center
07:30PM 35.7353 -96.0800 19° North 107 123 5,100  Climbing Kansas City Center
07:31PM 35.7653 -96.0708 14° North 108 124 5,000 -60 Descending Kansas City Center
07:33PM 35.8225 -96.0497 17° North 107 123 5,000 -180 Level Kansas City Center
07:34PM 35.8556 -96.0389 15° North 114 131 4,500 -600 Descending Kansas City Center
07:35PM 35.8836 -96.0294 15° North 113 130 3,800 -660 Descending Kansas City Center
07:36PM 35.9150 -96.0175 17° North 117 135 3,200 -780 Descending Kansas City Center
07:37PM 35.9539 -96.0083 11° North 119 137 2,300 -720 Descending Kansas City Center
07:38PM 35.9806 -96.0022 11° North 100 115 1,800 -420 Descending Kansas City Center
07:39PM 36.0031 -95.9967 11° North 81 93 1,500 -420 Descending Kansas City Center
07:40PM 36.0222 -95.9892 18° North 82 94 1,000  Descending Kansas City Center
07:42PM 36.0333 -95.9833 332° Northwest  Level FlightAware Approximate
07:45PM 36.0561 -95.9797 332° Northwest 73 84 1,500  Level Kansas City Center
07:45PM 36.0711 -95.9828 351° North 90 104 1,800 60 Climbing Kansas City Center
07:47PM 36.0317 -96.0111 210° Southwest 111 128 1,800 -60 Level Kansas City Center
07:48PM 36.0269 -96.0111 180° South 102 117 1,700 -240 Descending Kansas City Center
07:48PM 36.0142 -96.0031 153° Southeast 92 106 1,600 -300 Descending Kansas City Center
07:49PM 36.0396 -95.9846 332° Northwest  Level Estimated
07:49PM 36.0153 -95.9950 80° East 105 121 1,400  Level Kansas City Center
07:50PM 36.0333 -95.9833 332° Northwest  Level FlightAware Approximate
07:50PM 36.0286 -95.9881 23° Northeast 90 104 1,000  Level Kansas City Center
07:54PM 36.0586 -95.9819 North 87 100 1,500 60 Climbing Kansas City Center
07:56PM 36.0228 -95.9814 179° South 91 105 1,400 -60 Descending Kansas City Center